sensor_id;sensor_type;location;lat;lon;timestamp;P1;durP1;ratioP1;P2;durP2;ratioP2
43678;SDS011;29279;50.858;4.392;2023-07-29T00:01:00;1.67;;;1.23;;
43678;SDS011;29279;50.858;4.392;2023-07-29T00:03:26;2.47;;;1.20;;
43678;SDS011;29279;50.858;4.392;2023-07-29T00:05:52;2.70;;;1.52;;
43678;SDS011;29279;50.858;4.392;2023-07-29T00:08:17;2.70;;;1.80;;
43678;SDS011;29279;50.858;4.392;2023-07-29T00:10:43;2.45;;;1.38;;
43678;SDS011;29279;50.858;4.392;2023-07-29T00:13:09;5.05;;;1.40;;
43678;SDS011;29279;50.858;4.392;2023-07-29T00:15:34;4.07;;;1.52;;
43678;SDS011;29279;50.858;4.392;2023-07-29T00:18:00;3.70;;;1.50;;
43678;SDS011;29279;50.858;4.392;2023-07-29T00:20:26;7.20;;;1.88;;
43678;SDS011;29279;50.858;4.392;2023-07-29T00:22:51;3.03;;;1.40;;
43678;SDS011;29279;50.858;4.392;2023-07-29T00:25:20;1.45;;;1.30;;
43678;SDS011;29279;50.858;4.392;2023-07-29T00:27:46;4.97;;;1.60;;
43678;SDS011;29279;50.858;4.392;2023-07-29T00:30:12;4.50;;;1.52;;
43678;SDS011;29279;50.858;4.392;2023-07-29T00:32:38;3.72;;;1.38;;
43678;SDS011;29279;50.858;4.392;2023-07-29T00:35:04;3.38;;;1.30;;
43678;SDS011;29279;50.858;4.392;2023-07-29T00:37:30;2.97;;;1.75;;
43678;SDS011;29279;50.858;4.392;2023-07-29T00:39:56;5.93;;;1.60;;
43678;SDS011;29279;50.858;4.392;2023-07-29T00:42:23;6.85;;;1.58;;
43678;SDS011;29279;50.858;4.392;2023-07-29T00:44:48;3.08;;;1.50;;
43678;SDS011;29279;50.858;4.392;2023-07-29T00:47:15;3.03;;;1.55;;
43678;SDS011;29279;50.858;4.392;2023-07-29T00:49:41;2.72;;;1.52;;
43678;SDS011;29279;50.858;4.392;2023-07-29T00:52:10;2.65;;;1.63;;
43678;SDS011;29279;50.858;4.392;2023-07-29T00:54:38;2.58;;;1.50;;
43678;SDS011;29279;50.858;4.392;2023-07-29T00:57:04;3.30;;;1.70;;
43678;SDS011;29279;50.858;4.392;2023-07-29T00:59:31;5.53;;;1.55;;
43678;SDS011;29279;50.858;4.392;2023-07-29T01:01:58;2.33;;;1.30;;
43678;SDS011;29279;50.858;4.392;2023-07-29T01:04:24;2.10;;;1.60;;
43678;SDS011;29279;50.858;4.392;2023-07-29T01:15:06;2.47;;;1.30;;
43678;SDS011;29279;50.858;4.392;2023-07-29T01:17:40;5.85;;;1.85;;
43678;SDS011;29279;50.858;4.392;2023-07-29T01:20:16;2.58;;;1.77;;
43678;SDS011;29279;50.858;4.392;2023-07-29T01:22:45;7.13;;;1.90;;
43678;SDS011;29279;50.858;4.392;2023-07-29T01:25:12;4.65;;;1.65;;
43678;SDS011;29279;50.858;4.392;2023-07-29T01:27:38;5.32;;;2.10;;
43678;SDS011;29279;50.858;4.392;2023-07-29T01:30:05;3.55;;;1.80;;
43678;SDS011;29279;50.858;4.392;2023-07-29T01:32:36;7.93;;;2.00;;
43678;SDS011;29279;50.858;4.392;2023-07-29T01:35:17;5.57;;;1.80;;
43678;SDS011;29279;50.858;4.392;2023-07-29T01:37:49;4.38;;;2.17;;
43678;SDS011;29279;50.858;4.392;2023-07-29T01:40:20;5.15;;;1.90;;
43678;SDS011;29279;50.858;4.392;2023-07-29T01:42:51;2.35;;;1.75;;
43678;SDS011;29279;50.858;4.392;2023-07-29T01:45:17;3.97;;;1.88;;
43678;SDS011;29279;50.858;4.392;2023-07-29T01:47:43;7.32;;;2.00;;
43678;SDS011;29279;50.858;4.392;2023-07-29T01:50:08;4.97;;;1.88;;
43678;SDS011;29279;50.858;4.392;2023-07-29T01:52:34;3.97;;;2.22;;
43678;SDS011;29279;50.858;4.392;2023-07-29T01:55:01;4.70;;;2.10;;
43678;SDS011;29279;50.858;4.392;2023-07-29T01:57:27;6.60;;;2.25;;
43678;SDS011;29279;50.858;4.392;2023-07-29T01:59:52;4.13;;;2.20;;
43678;SDS011;29279;50.858;4.392;2023-07-29T02:02:18;4.03;;;2.03;;
43678;SDS011;29279;50.858;4.392;2023-07-29T02:04:43;5.45;;;2.20;;
43678;SDS011;29279;50.858;4.392;2023-07-29T02:07:10;6.20;;;2.53;;
43678;SDS011;29279;50.858;4.392;2023-07-29T02:09:36;5.25;;;1.85;;
43678;SDS011;29279;50.858;4.392;2023-07-29T02:12:01;5.22;;;1.88;;
43678;SDS011;29279;50.858;4.392;2023-07-29T02:14:27;3.42;;;2.30;;
43678;SDS011;29279;50.858;4.392;2023-07-29T02:16:53;3.15;;;2.28;;
43678;SDS011;29279;50.858;4.392;2023-07-29T02:19:19;6.75;;;2.47;;
43678;SDS011;29279;50.858;4.392;2023-07-29T02:21:44;5.22;;;2.47;;
43678;SDS011;29279;50.858;4.392;2023-07-29T02:24:10;4.25;;;2.03;;
43678;SDS011;29279;50.858;4.392;2023-07-29T02:26:35;4.35;;;1.95;;
43678;SDS011;29279;50.858;4.392;2023-07-29T02:29:01;4.43;;;2.10;;
43678;SDS011;29279;50.858;4.392;2023-07-29T02:31:27;6.63;;;1.98;;
43678;SDS011;29279;50.858;4.392;2023-07-29T02:33:53;5.57;;;2.05;;
43678;SDS011;29279;50.858;4.392;2023-07-29T02:36:18;4.10;;;2.20;;
43678;SDS011;29279;50.858;4.392;2023-07-29T02:38:44;8.40;;;2.35;;
43678;SDS011;29279;50.858;4.392;2023-07-29T02:41:10;5.07;;;2.03;;
43678;SDS011;29279;50.858;4.392;2023-07-29T02:43:41;4.80;;;1.90;;
43678;SDS011;29279;50.858;4.392;2023-07-29T02:46:08;4.15;;;2.10;;
43678;SDS011;29279;50.858;4.392;2023-07-29T02:48:34;3.78;;;2.25;;
43678;SDS011;29279;50.858;4.392;2023-07-29T02:50:59;4.15;;;2.60;;
43678;SDS011;29279;50.858;4.392;2023-07-29T02:53:25;4.65;;;1.95;;
43678;SDS011;29279;50.858;4.392;2023-07-29T02:55:51;3.90;;;1.85;;
43678;SDS011;29279;50.858;4.392;2023-07-29T02:58:16;5.90;;;1.95;;
43678;SDS011;29279;50.858;4.392;2023-07-29T03:00:42;2.95;;;2.38;;
43678;SDS011;29279;50.858;4.392;2023-07-29T03:03:08;3.15;;;1.63;;
43678;SDS011;29279;50.858;4.392;2023-07-29T03:05:34;6.28;;;1.80;;
43678;SDS011;29279;50.858;4.392;2023-07-29T03:08:00;4.57;;;1.98;;
43678;SDS011;29279;50.858;4.392;2023-07-29T03:10:26;3.65;;;2.10;;
43678;SDS011;29279;50.858;4.392;2023-07-29T03:12:55;4.18;;;2.05;;
43678;SDS011;29279;50.858;4.392;2023-07-29T03:15:24;3.50;;;2.00;;
43678;SDS011;29279;50.858;4.392;2023-07-29T03:17:50;4.90;;;2.03;;
43678;SDS011;29279;50.858;4.392;2023-07-29T03:20:16;3.35;;;2.00;;
43678;SDS011;29279;50.858;4.392;2023-07-29T03:22:45;5.35;;;2.00;;
43678;SDS011;29279;50.858;4.392;2023-07-29T03:25:11;7.22;;;2.28;;
43678;SDS011;29279;50.858;4.392;2023-07-29T03:27:37;6.90;;;1.85;;
43678;SDS011;29279;50.858;4.392;2023-07-29T03:30:03;7.07;;;2.30;;
43678;SDS011;29279;50.858;4.392;2023-07-29T03:32:29;11.10;;;2.50;;
43678;SDS011;29279;50.858;4.392;2023-07-29T03:34:55;5.95;;;2.30;;
43678;SDS011;29279;50.858;4.392;2023-07-29T03:37:20;2.97;;;1.60;;
43678;SDS011;29279;50.858;4.392;2023-07-29T03:39:46;2.58;;;1.85;;
43678;SDS011;29279;50.858;4.392;2023-07-29T03:42:12;2.35;;;1.75;;
43678;SDS011;29279;50.858;4.392;2023-07-29T03:44:38;3.08;;;2.05;;
43678;SDS011;29279;50.858;4.392;2023-07-29T03:47:05;4.40;;;1.88;;
43678;SDS011;29279;50.858;4.392;2023-07-29T03:49:31;5.93;;;1.98;;
43678;SDS011;29279;50.858;4.392;2023-07-29T03:51:57;5.05;;;2.10;;
43678;SDS011;29279;50.858;4.392;2023-07-29T03:54:23;4.32;;;2.00;;
43678;SDS011;29279;50.858;4.392;2023-07-29T03:56:48;6.68;;;1.95;;
43678;SDS011;29279;50.858;4.392;2023-07-29T03:59:14;2.95;;;1.73;;
43678;SDS011;29279;50.858;4.392;2023-07-29T04:01:39;4.80;;;2.03;;
43678;SDS011;29279;50.858;4.392;2023-07-29T04:04:05;6.45;;;2.03;;
43678;SDS011;29279;50.858;4.392;2023-07-29T04:06:31;5.38;;;2.08;;
43678;SDS011;29279;50.858;4.392;2023-07-29T04:08:57;4.80;;;2.00;;
43678;SDS011;29279;50.858;4.392;2023-07-29T04:11:23;7.38;;;2.60;;
43678;SDS011;29279;50.858;4.392;2023-07-29T04:13:49;4.28;;;1.67;;
43678;SDS011;29279;50.858;4.392;2023-07-29T04:16:14;4.68;;;2.20;;
43678;SDS011;29279;50.858;4.392;2023-07-29T04:18:41;4.22;;;1.95;;
43678;SDS011;29279;50.858;4.392;2023-07-29T04:21:07;3.70;;;2.03;;
43678;SDS011;29279;50.858;4.392;2023-07-29T04:23:34;2.65;;;1.88;;
43678;SDS011;29279;50.858;4.392;2023-07-29T04:26:00;6.68;;;2.25;;
43678;SDS011;29279;50.858;4.392;2023-07-29T04:28:26;3.88;;;2.13;;
43678;SDS011;29279;50.858;4.392;2023-07-29T04:30:51;3.97;;;2.20;;
43678;SDS011;29279;50.858;4.392;2023-07-29T04:33:17;5.43;;;2.33;;
43678;SDS011;29279;50.858;4.392;2023-07-29T04:35:42;8.82;;;2.67;;
43678;SDS011;29279;50.858;4.392;2023-07-29T04:38:08;4.47;;;1.92;;
43678;SDS011;29279;50.858;4.392;2023-07-29T04:40:34;9.38;;;2.17;;
43678;SDS011;29279;50.858;4.392;2023-07-29T04:43:00;6.70;;;2.38;;
43678;SDS011;29279;50.858;4.392;2023-07-29T04:45:29;4.70;;;2.10;;
43678;SDS011;29279;50.858;4.392;2023-07-29T04:47:55;4.45;;;1.92;;
43678;SDS011;29279;50.858;4.392;2023-07-29T04:50:22;5.93;;;1.88;;
43678;SDS011;29279;50.858;4.392;2023-07-29T04:52:47;6.68;;;1.95;;
43678;SDS011;29279;50.858;4.392;2023-07-29T04:55:13;4.07;;;2.10;;
43678;SDS011;29279;50.858;4.392;2023-07-29T04:57:39;4.55;;;2.00;;
43678;SDS011;29279;50.858;4.392;2023-07-29T05:00:04;5.80;;;2.05;;
43678;SDS011;29279;50.858;4.392;2023-07-29T05:02:30;4.88;;;1.80;;
43678;SDS011;29279;50.858;4.392;2023-07-29T05:04:56;8.13;;;2.30;;
43678;SDS011;29279;50.858;4.392;2023-07-29T05:07:22;3.33;;;1.80;;
43678;SDS011;29279;50.858;4.392;2023-07-29T05:09:48;4.53;;;2.17;;
43678;SDS011;29279;50.858;4.392;2023-07-29T05:12:13;5.20;;;1.95;;
43678;SDS011;29279;50.858;4.392;2023-07-29T05:14:39;2.35;;;1.70;;
43678;SDS011;29279;50.858;4.392;2023-07-29T05:17:05;6.25;;;2.03;;
43678;SDS011;29279;50.858;4.392;2023-07-29T05:19:31;3.00;;;1.88;;
43678;SDS011;29279;50.858;4.392;2023-07-29T05:21:56;3.80;;;1.90;;
43678;SDS011;29279;50.858;4.392;2023-07-29T05:24:22;5.93;;;2.13;;
43678;SDS011;29279;50.858;4.392;2023-07-29T05:26:48;5.90;;;2.17;;
43678;SDS011;29279;50.858;4.392;2023-07-29T05:29:14;3.35;;;2.00;;
43678;SDS011;29279;50.858;4.392;2023-07-29T05:31:40;4.65;;;1.90;;
43678;SDS011;29279;50.858;4.392;2023-07-29T05:34:06;7.95;;;2.25;;
43678;SDS011;29279;50.858;4.392;2023-07-29T05:36:32;3.92;;;1.70;;
43678;SDS011;29279;50.858;4.392;2023-07-29T05:38:57;4.03;;;2.00;;
43678;SDS011;29279;50.858;4.392;2023-07-29T05:41:23;7.18;;;2.42;;
43678;SDS011;29279;50.858;4.392;2023-07-29T05:43:51;4.55;;;2.15;;
43678;SDS011;29279;50.858;4.392;2023-07-29T05:46:16;5.80;;;1.80;;
43678;SDS011;29279;50.858;4.392;2023-07-29T05:48:42;6.22;;;1.90;;
43678;SDS011;29279;50.858;4.392;2023-07-29T05:51:08;7.40;;;1.75;;
43678;SDS011;29279;50.858;4.392;2023-07-29T05:53:33;2.97;;;1.80;;
43678;SDS011;29279;50.858;4.392;2023-07-29T05:55:59;3.78;;;1.70;;
43678;SDS011;29279;50.858;4.392;2023-07-29T05:58:25;4.03;;;1.60;;
43678;SDS011;29279;50.858;4.392;2023-07-29T06:00:50;3.67;;;1.38;;
43678;SDS011;29279;50.858;4.392;2023-07-29T06:03:16;2.35;;;1.65;;
43678;SDS011;29279;50.858;4.392;2023-07-29T06:05:42;9.82;;;1.60;;
43678;SDS011;29279;50.858;4.392;2023-07-29T06:08:08;5.15;;;1.70;;
43678;SDS011;29279;50.858;4.392;2023-07-29T06:10:34;3.20;;;1.60;;
43678;SDS011;29279;50.858;4.392;2023-07-29T06:12:59;2.58;;;1.60;;
43678;SDS011;29279;50.858;4.392;2023-07-29T06:15:25;3.65;;;1.60;;
43678;SDS011;29279;50.858;4.392;2023-07-29T06:17:51;3.63;;;1.65;;
43678;SDS011;29279;50.858;4.392;2023-07-29T06:20:16;2.90;;;1.50;;
43678;SDS011;29279;50.858;4.392;2023-07-29T06:22:42;4.28;;;1.65;;
43678;SDS011;29279;50.858;4.392;2023-07-29T06:25:08;3.88;;;1.27;;
43678;SDS011;29279;50.858;4.392;2023-07-29T06:27:34;3.78;;;1.52;;
43678;SDS011;29279;50.858;4.392;2023-07-29T06:29:59;4.45;;;1.33;;
43678;SDS011;29279;50.858;4.392;2023-07-29T06:32:26;5.50;;;1.45;;
43678;SDS011;29279;50.858;4.392;2023-07-29T06:34:51;2.95;;;1.50;;
43678;SDS011;29279;50.858;4.392;2023-07-29T06:37:22;2.50;;;1.33;;
43678;SDS011;29279;50.858;4.392;2023-07-29T06:39:48;5.70;;;1.50;;
43678;SDS011;29279;50.858;4.392;2023-07-29T06:42:13;2.60;;;1.38;;
43678;SDS011;29279;50.858;4.392;2023-07-29T06:44:39;1.95;;;1.30;;
43678;SDS011;29279;50.858;4.392;2023-07-29T06:47:05;4.43;;;1.83;;
43678;SDS011;29279;50.858;4.392;2023-07-29T06:49:31;2.25;;;1.42;;
43678;SDS011;29279;50.858;4.392;2023-07-29T06:51:56;2.58;;;1.33;;
43678;SDS011;29279;50.858;4.392;2023-07-29T06:54:25;6.43;;;1.33;;
43678;SDS011;29279;50.858;4.392;2023-07-29T06:56:51;3.40;;;1.48;;
43678;SDS011;29279;50.858;4.392;2023-07-29T06:59:17;4.32;;;1.40;;
43678;SDS011;29279;50.858;4.392;2023-07-29T07:01:43;3.95;;;1.20;;
43678;SDS011;29279;50.858;4.392;2023-07-29T07:04:09;6.55;;;1.75;;
43678;SDS011;29279;50.858;4.392;2023-07-29T07:06:34;3.28;;;1.13;;
43678;SDS011;29279;50.858;4.392;2023-07-29T07:09:00;5.82;;;1.52;;
43678;SDS011;29279;50.858;4.392;2023-07-29T07:11:26;4.40;;;1.73;;
43678;SDS011;29279;50.858;4.392;2023-07-29T07:13:51;2.28;;;1.55;;
43678;SDS011;29279;50.858;4.392;2023-07-29T07:16:17;2.63;;;1.48;;
43678;SDS011;29279;50.858;4.392;2023-07-29T07:18:43;5.70;;;1.83;;
43678;SDS011;29279;50.858;4.392;2023-07-29T07:21:08;4.22;;;1.60;;
43678;SDS011;29279;50.858;4.392;2023-07-29T07:23:34;1.10;;;1.00;;
43678;SDS011;29279;50.858;4.392;2023-07-29T07:26:00;2.78;;;1.38;;
43678;SDS011;29279;50.858;4.392;2023-07-29T07:28:25;3.72;;;1.27;;
43678;SDS011;29279;50.858;4.392;2023-07-29T07:30:51;3.72;;;1.55;;
43678;SDS011;29279;50.858;4.392;2023-07-29T07:33:17;5.20;;;1.40;;
43678;SDS011;29279;50.858;4.392;2023-07-29T07:35:43;4.35;;;1.33;;
43678;SDS011;29279;50.858;4.392;2023-07-29T07:38:08;3.97;;;1.40;;
43678;SDS011;29279;50.858;4.392;2023-07-29T07:40:35;6.00;;;1.63;;
43678;SDS011;29279;50.858;4.392;2023-07-29T07:43:01;4.70;;;1.70;;
43678;SDS011;29279;50.858;4.392;2023-07-29T07:45:27;5.28;;;1.50;;
43678;SDS011;29279;50.858;4.392;2023-07-29T07:47:52;2.90;;;1.35;;
43678;SDS011;29279;50.858;4.392;2023-07-29T07:50:19;4.63;;;1.33;;
43678;SDS011;29279;50.858;4.392;2023-07-29T07:52:45;3.60;;;1.50;;
43678;SDS011;29279;50.858;4.392;2023-07-29T07:55:11;3.83;;;1.63;;
43678;SDS011;29279;50.858;4.392;2023-07-29T07:57:37;4.22;;;1.90;;
43678;SDS011;29279;50.858;4.392;2023-07-29T08:00:03;3.40;;;1.63;;
43678;SDS011;29279;50.858;4.392;2023-07-29T08:02:29;8.45;;;1.92;;
43678;SDS011;29279;50.858;4.392;2023-07-29T08:04:55;1.52;;;1.30;;
43678;SDS011;29279;50.858;4.392;2023-07-29T08:07:21;4.35;;;1.63;;
43678;SDS011;29279;50.858;4.392;2023-07-29T08:09:46;3.72;;;1.60;;
43678;SDS011;29279;50.858;4.392;2023-07-29T08:12:16;4.70;;;1.33;;
43678;SDS011;29279;50.858;4.392;2023-07-29T08:14:41;3.38;;;1.30;;
43678;SDS011;29279;50.858;4.392;2023-07-29T08:17:07;3.70;;;1.40;;
43678;SDS011;29279;50.858;4.392;2023-07-29T08:19:33;5.25;;;1.80;;
43678;SDS011;29279;50.858;4.392;2023-07-29T08:22:01;3.13;;;1.85;;
43678;SDS011;29279;50.858;4.392;2023-07-29T08:24:28;3.60;;;1.50;;
43678;SDS011;29279;50.858;4.392;2023-07-29T08:26:53;6.28;;;1.52;;
43678;SDS011;29279;50.858;4.392;2023-07-29T08:29:19;4.70;;;1.60;;
43678;SDS011;29279;50.858;4.392;2023-07-29T08:31:44;3.17;;;1.38;;
43678;SDS011;29279;50.858;4.392;2023-07-29T08:34:10;5.40;;;1.45;;
43678;SDS011;29279;50.858;4.392;2023-07-29T08:36:36;2.25;;;1.20;;
43678;SDS011;29279;50.858;4.392;2023-07-29T08:39:01;6.75;;;1.20;;
43678;SDS011;29279;50.858;4.392;2023-07-29T08:41:29;2.88;;;1.13;;
43678;SDS011;29279;50.858;4.392;2023-07-29T08:44:03;5.13;;;1.13;;
43678;SDS011;29279;50.858;4.392;2023-07-29T08:46:37;5.10;;;1.45;;
43678;SDS011;29279;50.858;4.392;2023-07-29T08:49:04;2.88;;;1.42;;
43678;SDS011;29279;50.858;4.392;2023-07-29T08:51:31;6.80;;;1.40;;
43678;SDS011;29279;50.858;4.392;2023-07-29T08:53:58;6.15;;;1.20;;
43678;SDS011;29279;50.858;4.392;2023-07-29T08:56:24;4.80;;;1.52;;
43678;SDS011;29279;50.858;4.392;2023-07-29T08:58:50;6.70;;;1.45;;
43678;SDS011;29279;50.858;4.392;2023-07-29T09:01:17;4.00;;;1.45;;
43678;SDS011;29279;50.858;4.392;2023-07-29T09:03:43;5.15;;;1.58;;
43678;SDS011;29279;50.858;4.392;2023-07-29T09:06:08;2.72;;;1.40;;
43678;SDS011;29279;50.858;4.392;2023-07-29T09:08:35;2.45;;;1.45;;
43678;SDS011;29279;50.858;4.392;2023-07-29T09:11:01;3.10;;;1.40;;
43678;SDS011;29279;50.858;4.392;2023-07-29T09:13:28;3.10;;;1.52;;
43678;SDS011;29279;50.858;4.392;2023-07-29T09:15:54;3.80;;;1.45;;
43678;SDS011;29279;50.858;4.392;2023-07-29T09:18:21;4.63;;;1.48;;
43678;SDS011;29279;50.858;4.392;2023-07-29T09:20:47;1.85;;;1.45;;
43678;SDS011;29279;50.858;4.392;2023-07-29T09:23:14;4.55;;;1.80;;
43678;SDS011;29279;50.858;4.392;2023-07-29T09:25:40;5.68;;;2.10;;
43678;SDS011;29279;50.858;4.392;2023-07-29T09:28:09;2.33;;;1.63;;
43678;SDS011;29279;50.858;4.392;2023-07-29T09:30:37;2.50;;;1.50;;
43678;SDS011;29279;50.858;4.392;2023-07-29T09:33:08;2.95;;;1.35;;
43678;SDS011;29279;50.858;4.392;2023-07-29T09:35:35;2.70;;;1.23;;
43678;SDS011;29279;50.858;4.392;2023-07-29T09:38:02;2.70;;;1.58;;
43678;SDS011;29279;50.858;4.392;2023-07-29T09:40:38;4.82;;;1.65;;
43678;SDS011;29279;50.858;4.392;2023-07-29T09:43:05;4.10;;;1.92;;
43678;SDS011;29279;50.858;4.392;2023-07-29T09:45:32;6.03;;;1.60;;
43678;SDS011;29279;50.858;4.392;2023-07-29T09:47:59;2.53;;;1.15;;
43678;SDS011;29279;50.858;4.392;2023-07-29T09:50:26;2.95;;;1.55;;
43678;SDS011;29279;50.858;4.392;2023-07-29T09:52:53;6.18;;;1.88;;
43678;SDS011;29279;50.858;4.392;2023-07-29T09:55:20;1.83;;;1.20;;
43678;SDS011;29279;50.858;4.392;2023-07-29T09:57:48;2.85;;;1.52;;
43678;SDS011;29279;50.858;4.392;2023-07-29T10:00:22;2.47;;;1.40;;
43678;SDS011;29279;50.858;4.392;2023-07-29T10:02:48;3.65;;;1.80;;
43678;SDS011;29279;50.858;4.392;2023-07-29T10:05:14;3.78;;;1.63;;
43678;SDS011;29279;50.858;4.392;2023-07-29T10:07:40;4.00;;;1.98;;
43678;SDS011;29279;50.858;4.392;2023-07-29T10:10:06;7.05;;;1.67;;
43678;SDS011;29279;50.858;4.392;2023-07-29T10:12:33;8.07;;;2.13;;
43678;SDS011;29279;50.858;4.392;2023-07-29T10:15:02;3.65;;;1.70;;
43678;SDS011;29279;50.858;4.392;2023-07-29T10:17:29;3.22;;;1.63;;
43678;SDS011;29279;50.858;4.392;2023-07-29T10:19:58;1.95;;;1.58;;
43678;SDS011;29279;50.858;4.392;2023-07-29T10:22:25;2.88;;;1.88;;
43678;SDS011;29279;50.858;4.392;2023-07-29T10:24:54;2.40;;;1.00;;
43678;SDS011;29279;50.858;4.392;2023-07-29T10:27:27;3.70;;;1.33;;
43678;SDS011;29279;50.858;4.392;2023-07-29T10:29:54;5.78;;;1.73;;
43678;SDS011;29279;50.858;4.392;2023-07-29T10:32:22;3.47;;;1.80;;
43678;SDS011;29279;50.858;4.392;2023-07-29T10:34:51;6.68;;;2.00;;
43678;SDS011;29279;50.858;4.392;2023-07-29T10:37:17;6.45;;;1.70;;
43678;SDS011;29279;50.858;4.392;2023-07-29T10:39:51;14.18;;;2.25;;
43678;SDS011;29279;50.858;4.392;2023-07-29T10:42:20;6.28;;;2.65;;
43678;SDS011;29279;50.858;4.392;2023-07-29T10:44:47;6.03;;;2.90;;
43678;SDS011;29279;50.858;4.392;2023-07-29T10:47:24;8.40;;;2.60;;
43678;SDS011;29279;50.858;4.392;2023-07-29T10:49:53;4.60;;;2.60;;
43678;SDS011;29279;50.858;4.392;2023-07-29T10:54:56;6.18;;;2.60;;
43678;SDS011;29279;50.858;4.392;2023-07-29T11:00:03;5.45;;;2.65;;
43678;SDS011;29279;50.858;4.392;2023-07-29T11:02:31;5.22;;;2.95;;
43678;SDS011;29279;50.858;4.392;2023-07-29T11:05:09;5.57;;;3.10;;
43678;SDS011;29279;50.858;4.392;2023-07-29T11:07:45;5.00;;;3.42;;
43678;SDS011;29279;50.858;4.392;2023-07-29T11:10:13;5.60;;;2.97;;
43678;SDS011;29279;50.858;4.392;2023-07-29T11:17:43;7.40;;;2.78;;
43678;SDS011;29279;50.858;4.392;2023-07-29T11:20:09;3.90;;;2.53;;
43678;SDS011;29279;50.858;4.392;2023-07-29T11:22:36;6.22;;;2.40;;
43678;SDS011;29279;50.858;4.392;2023-07-29T11:25:02;4.22;;;2.50;;
43678;SDS011;29279;50.858;4.392;2023-07-29T11:27:28;3.50;;;2.70;;
43678;SDS011;29279;50.858;4.392;2023-07-29T11:30:01;4.28;;;2.40;;
43678;SDS011;29279;50.858;4.392;2023-07-29T11:32:30;4.38;;;2.58;;
43678;SDS011;29279;50.858;4.392;2023-07-29T11:34:56;6.32;;;2.42;;
43678;SDS011;29279;50.858;4.392;2023-07-29T11:37:29;4.38;;;2.08;;
43678;SDS011;29279;50.858;4.392;2023-07-29T11:39:55;4.53;;;2.30;;
43678;SDS011;29279;50.858;4.392;2023-07-29T11:42:21;2.35;;;2.00;;
43678;SDS011;29279;50.858;4.392;2023-07-29T11:44:46;4.20;;;1.90;;
43678;SDS011;29279;50.858;4.392;2023-07-29T11:47:12;2.33;;;1.60;;
43678;SDS011;29279;50.858;4.392;2023-07-29T11:49:39;6.60;;;1.98;;
43678;SDS011;29279;50.858;4.392;2023-07-29T11:52:09;4.20;;;2.13;;
43678;SDS011;29279;50.858;4.392;2023-07-29T11:54:36;5.75;;;2.00;;
43678;SDS011;29279;50.858;4.392;2023-07-29T11:57:08;2.63;;;1.73;;
43678;SDS011;29279;50.858;4.392;2023-07-29T11:59:35;1.45;;;1.30;;
43678;SDS011;29279;50.858;4.392;2023-07-29T12:02:02;3.05;;;1.48;;
43678;SDS011;29279;50.858;4.392;2023-07-29T12:04:31;2.45;;;1.52;;
43678;SDS011;29279;50.858;4.392;2023-07-29T12:06:58;3.47;;;1.42;;
43678;SDS011;29279;50.858;4.392;2023-07-29T12:09:24;3.75;;;1.90;;
43678;SDS011;29279;50.858;4.392;2023-07-29T12:11:52;5.80;;;2.83;;
43678;SDS011;29279;50.858;4.392;2023-07-29T12:14:18;3.85;;;2.17;;
43678;SDS011;29279;50.858;4.392;2023-07-29T12:16:43;5.85;;;2.63;;
43678;SDS011;29279;50.858;4.392;2023-07-29T12:19:12;5.18;;;2.83;;
43678;SDS011;29279;50.858;4.392;2023-07-29T12:21:42;5.38;;;2.95;;
43678;SDS011;29279;50.858;4.392;2023-07-29T12:24:08;4.13;;;2.08;;
43678;SDS011;29279;50.858;4.392;2023-07-29T12:26:33;6.60;;;2.42;;
43678;SDS011;29279;50.858;4.392;2023-07-29T12:29:10;5.13;;;2.28;;
43678;SDS011;29279;50.858;4.392;2023-07-29T12:31:37;5.80;;;2.90;;
43678;SDS011;29279;50.858;4.392;2023-07-29T12:34:03;3.75;;;2.42;;
43678;SDS011;29279;50.858;4.392;2023-07-29T12:36:42;4.95;;;2.83;;
43678;SDS011;29279;50.858;4.392;2023-07-29T12:41:44;3.75;;;3.00;;
43678;SDS011;29279;50.858;4.392;2023-07-29T12:44:10;5.07;;;2.55;;
43678;SDS011;29279;50.858;4.392;2023-07-29T12:46:36;7.32;;;2.90;;
43678;SDS011;29279;50.858;4.392;2023-07-29T12:49:02;4.40;;;2.80;;
43678;SDS011;29279;50.858;4.392;2023-07-29T12:51:27;3.90;;;2.58;;
43678;SDS011;29279;50.858;4.392;2023-07-29T12:53:53;3.40;;;2.33;;
43678;SDS011;29279;50.858;4.392;2023-07-29T12:56:19;6.70;;;2.55;;
43678;SDS011;29279;50.858;4.392;2023-07-29T12:58:45;2.60;;;2.15;;
43678;SDS011;29279;50.858;4.392;2023-07-29T13:01:11;4.65;;;1.98;;
43678;SDS011;29279;50.858;4.392;2023-07-29T13:03:42;4.05;;;2.00;;
43678;SDS011;29279;50.858;4.392;2023-07-29T13:06:07;2.00;;;1.70;;
43678;SDS011;29279;50.858;4.392;2023-07-29T13:08:33;3.63;;;1.80;;
43678;SDS011;29279;50.858;4.392;2023-07-29T13:10:59;4.40;;;1.40;;
43678;SDS011;29279;50.858;4.392;2023-07-29T13:13:24;3.33;;;1.77;;
43678;SDS011;29279;50.858;4.392;2023-07-29T13:15:50;6.05;;;1.88;;
43678;SDS011;29279;50.858;4.392;2023-07-29T13:18:16;2.88;;;1.67;;
43678;SDS011;29279;50.858;4.392;2023-07-29T13:20:41;2.88;;;1.88;;
43678;SDS011;29279;50.858;4.392;2023-07-29T13:23:07;3.72;;;1.85;;
43678;SDS011;29279;50.858;4.392;2023-07-29T13:25:33;2.75;;;2.08;;
43678;SDS011;29279;50.858;4.392;2023-07-29T13:27:58;2.63;;;2.03;;
43678;SDS011;29279;50.858;4.392;2023-07-29T13:30:24;2.08;;;1.73;;
43678;SDS011;29279;50.858;4.392;2023-07-29T13:32:49;4.78;;;1.60;;
43678;SDS011;29279;50.858;4.392;2023-07-29T13:35:15;2.28;;;1.80;;
43678;SDS011;29279;50.858;4.392;2023-07-29T13:37:41;1.63;;;1.52;;
43678;SDS011;29279;50.858;4.392;2023-07-29T13:40:06;1.63;;;1.38;;
43678;SDS011;29279;50.858;4.392;2023-07-29T13:42:32;2.13;;;1.58;;
43678;SDS011;29279;50.858;4.392;2023-07-29T13:44:58;6.38;;;1.90;;
43678;SDS011;29279;50.858;4.392;2023-07-29T13:47:24;2.55;;;1.50;;
43678;SDS011;29279;50.858;4.392;2023-07-29T13:49:49;1.95;;;1.40;;
43678;SDS011;29279;50.858;4.392;2023-07-29T13:52:15;1.55;;;1.38;;
43678;SDS011;29279;50.858;4.392;2023-07-29T13:54:40;3.35;;;1.90;;
43678;SDS011;29279;50.858;4.392;2023-07-29T13:57:06;5.63;;;1.73;;
43678;SDS011;29279;50.858;4.392;2023-07-29T13:59:32;1.60;;;1.38;;
43678;SDS011;29279;50.858;4.392;2023-07-29T14:01:58;1.50;;;1.40;;
43678;SDS011;29279;50.858;4.392;2023-07-29T14:04:23;1.42;;;1.20;;
43678;SDS011;29279;50.858;4.392;2023-07-29T14:06:49;1.55;;;1.38;;
43678;SDS011;29279;50.858;4.392;2023-07-29T14:09:15;1.35;;;1.20;;
43678;SDS011;29279;50.858;4.392;2023-07-29T14:11:40;1.67;;;1.40;;
43678;SDS011;29279;50.858;4.392;2023-07-29T14:14:06;2.10;;;1.20;;
43678;SDS011;29279;50.858;4.392;2023-07-29T14:16:32;2.53;;;1.23;;
43678;SDS011;29279;50.858;4.392;2023-07-29T14:18:58;1.98;;;1.10;;
43678;SDS011;29279;50.858;4.392;2023-07-29T14:21:24;1.20;;;1.00;;
43678;SDS011;29279;50.858;4.392;2023-07-29T14:23:53;1.77;;;1.17;;
43678;SDS011;29279;50.858;4.392;2023-07-29T14:26:19;1.38;;;1.10;;
43678;SDS011;29279;50.858;4.392;2023-07-29T14:28:44;2.47;;;1.38;;
43678;SDS011;29279;50.858;4.392;2023-07-29T14:31:10;1.48;;;1.08;;
43678;SDS011;29279;50.858;4.392;2023-07-29T14:33:35;2.47;;;1.38;;
43678;SDS011;29279;50.858;4.392;2023-07-29T14:36:01;1.73;;;1.05;;
43678;SDS011;29279;50.858;4.392;2023-07-29T14:38:28;1.02;;;0.80;;
43678;SDS011;29279;50.858;4.392;2023-07-29T14:40:54;1.88;;;0.90;;
43678;SDS011;29279;50.858;4.392;2023-07-29T14:43:21;2.05;;;1.10;;
43678;SDS011;29279;50.858;4.392;2023-07-29T14:45:48;1.67;;;1.02;;
43678;SDS011;29279;50.858;4.392;2023-07-29T14:48:14;1.20;;;1.00;;
43678;SDS011;29279;50.858;4.392;2023-07-29T14:50:39;2.78;;;1.05;;
43678;SDS011;29279;50.858;4.392;2023-07-29T14:53:06;2.03;;;1.38;;
43678;SDS011;29279;50.858;4.392;2023-07-29T14:55:32;2.55;;;1.15;;
43678;SDS011;29279;50.858;4.392;2023-07-29T14:57:57;2.33;;;1.40;;
43678;SDS011;29279;50.858;4.392;2023-07-29T15:00:23;1.25;;;1.15;;
43678;SDS011;29279;50.858;4.392;2023-07-29T15:02:49;2.03;;;1.17;;
43678;SDS011;29279;50.858;4.392;2023-07-29T15:05:14;1.45;;;0.90;;